Главная страница
METAR-TAF:

METAR-TAF

Аэропорты :

Harriman-and-West Airport

North Adams, Массачусетс, США

широта: 42-41-50N, долгота: 073-10-13W, высота над уровнем моря: 199 м

Текущие метеонаблюдения

Эта сводка был подготовлена 45 минут назад, в 22:06 UTC
Ветер 4 Узел переменных направлений
Температура 3°C
Влажность 87%
Давление 1015 hPa
Видимость: 16.1 км
Рассеянная облачность на высоте 2200 фута
Сплошная облачность на высоте 7000 фута
небольшой дождь

METAR: KAQW 232206Z AUTO VRB04KT 10SM -RA BKN022 OVC070 03/01 A2998 RMK AO2 P0000 T00280006

Время: 17:51 (22:51 UTC)


TAF: отсутствует

Метеонаблюдения и прогнозы для более 4000 аэропортов (сводки METAR и TAF).

Имеющиеся станции представлены на карте желтыми и красными точками.

Чтобы увидеть название станции, наведите на нее мышь.

Затем щелкните, чтобы увидеть метеонаблюдения и метеопрогнозы.

Управление картой: чтобы увеличить масштаб, щелкните зеленые кнопки с черным крестиком; чтобы уменьшить масштаб, щелкните зеленую кнопку с тире; для просмотра соседних карт щелкайте зеленые стрелки.


METAR-TAF: